createdAt,value
2022-09-26T00:00:22.212Z,43.28
2022-09-26T00:02:50.533Z,42.60
2022-09-26T00:05:20.367Z,41.47
2022-09-26T00:07:50.266Z,43.72
2022-09-26T00:10:23.916Z,40.35
2022-09-26T00:12:51.348Z,39.72
2022-09-26T00:15:18.824Z,39.22
2022-09-26T00:17:46.126Z,39.40
2022-09-26T00:20:12.898Z,38.45
2022-09-26T00:22:40.028Z,41.30
2022-09-26T00:25:07.878Z,39.88
2022-09-26T00:27:37.794Z,38.97
2022-09-26T00:30:08.539Z,41.65
2022-09-26T00:32:42.694Z,38.15
2022-09-26T00:35:12.566Z,37.20
2022-09-26T00:37:39.657Z,39.85
2022-09-26T00:40:07.446Z,39.47
2022-09-26T00:42:34.713Z,49.40
2022-09-26T00:45:11.044Z,42.08
2022-09-26T00:47:48.365Z,40.38
2022-09-26T00:50:29.625Z,39.30
2022-09-26T00:53:10.747Z,41.72
2022-09-26T00:55:44.433Z,36.95
2022-09-26T00:58:14.910Z,35.33
2022-09-26T01:00:42.682Z,35.47
2022-09-26T01:03:10.243Z,35.05
2022-09-26T01:05:37.908Z,33.60
2022-09-26T01:08:06.180Z,33.47
2022-09-26T01:10:36.454Z,32.60
2022-09-26T01:13:04.286Z,33.25
2022-09-26T01:15:36.649Z,31.45
2022-09-26T01:18:07.203Z,33.05
2022-09-26T01:20:52.531Z,31.77
2022-09-26T01:23:43.441Z,35.60
2022-09-26T01:26:37.479Z,33.30
2022-09-26T01:29:29.626Z,34.08
2022-09-26T01:32:43.232Z,32.95
2022-09-26T01:35:22.412Z,33.63
2022-09-26T01:38:14.223Z,32.60
2022-09-26T01:41:02.768Z,31.02
2022-09-26T01:43:53.284Z,29.52
2022-09-26T01:46:35.973Z,31.30
2022-09-26T01:52:28.263Z,31.83
2022-09-26T01:55:19.749Z,29.70
2022-09-26T01:58:02.632Z,34.03
2022-09-26T02:00:30.454Z,31.83
2022-09-26T02:02:59.051Z,34.83
2022-09-26T02:05:34.396Z,33.28
2022-09-26T02:08:07.736Z,34.58
2022-09-26T02:10:38.776Z,33.17
2022-09-26T02:13:14.239Z,34.03
2022-09-26T02:15:47.662Z,34.58
2022-09-26T02:18:24.567Z,35.60
2022-09-26T02:21:00.870Z,33.15
2022-09-26T02:23:29.818Z,32.25
2022-09-26T02:25:58.153Z,32.60
2022-09-26T02:28:25.457Z,33.53
2022-09-26T02:30:53.920Z,33.72
2022-09-26T02:33:22.283Z,35.17
2022-09-26T02:35:54.982Z,34.30
2022-09-26T02:38:30.284Z,34.67
2022-09-26T02:41:35.186Z,33.00
2022-09-26T02:44:21.097Z,33.20
2022-09-26T02:47:02.200Z,34.28
2022-09-26T02:49:48.107Z,33.15
2022-09-26T02:52:27.466Z,31.73
2022-09-26T02:54:58.086Z,32.15
2022-09-26T02:57:35.377Z,33.17
2022-09-26T03:00:09.914Z,33.30
2022-09-26T03:02:45.937Z,34.03
2022-09-26T03:05:20.917Z,33.88
2022-09-26T03:07:59.809Z,34.58
2022-09-26T03:10:30.637Z,32.50
2022-09-26T03:13:05.444Z,34.08
2022-09-26T03:15:35.011Z,33.22
2022-09-26T03:18:04.169Z,33.42
2022-09-26T03:20:31.342Z,33.58
2022-09-26T03:22:58.265Z,34.10
2022-09-26T03:25:29.640Z,34.00
2022-09-26T03:28:02.903Z,32.72
2022-09-26T03:30:30.473Z,35.08
2022-09-26T03:33:30.344Z,31.80
2022-09-26T03:35:59.488Z,32.42
2022-09-26T03:38:27.394Z,32.67
2022-09-26T03:41:20.249Z,30.70
2022-09-26T03:44:03.094Z,32.83
2022-09-26T03:46:49.156Z,29.85
2022-09-26T03:49:19.270Z,29.90
2022-09-26T03:51:46.192Z,28.23
2022-09-26T03:54:13.467Z,29.80
2022-09-26T03:56:52.055Z,28.42
2022-09-26T03:59:19.267Z,28.67
2022-09-26T04:01:47.684Z,27.98
2022-09-26T04:04:16.577Z,29.15
2022-09-26T04:06:44.962Z,28.77
2022-09-26T04:09:16.984Z,28.98
2022-09-26T04:11:47.966Z,28.50
2022-09-26T04:14:15.003Z,28.17
2022-09-26T04:16:44.271Z,27.38
2022-09-26T04:19:26.755Z,31.80
2022-09-26T04:21:53.802Z,27.08
2022-09-26T04:24:21.719Z,25.90
2022-09-26T04:26:48.757Z,26.42
2022-09-26T04:29:16.557Z,25.63
2022-09-26T04:32:06.189Z,24.52
2022-09-26T04:34:59.634Z,32.23
2022-09-26T04:37:26.583Z,23.95
2022-09-26T04:39:53.409Z,25.55
2022-09-26T04:42:21.497Z,25.88
2022-09-26T04:44:48.629Z,25.48
2022-09-26T04:47:17.732Z,24.70
2022-09-26T04:50:19.325Z,31.35
2022-09-26T04:53:02.945Z,27.20
2022-09-26T04:55:30.333Z,26.00
2022-09-26T04:57:57.207Z,25.08
2022-09-26T05:00:24.177Z,28.67
2022-09-26T05:02:52.139Z,25.50
2022-09-26T05:05:19.451Z,27.10
2022-09-26T05:07:46.173Z,26.08
2022-09-26T05:10:13.838Z,25.17
2022-09-26T05:12:51.000Z,27.08
2022-09-26T05:15:18.700Z,25.17
2022-09-26T05:17:46.119Z,23.92
2022-09-26T05:20:14.995Z,24.55
2022-09-26T05:22:49.097Z,25.73
2022-09-26T05:25:34.533Z,23.23
2022-09-26T05:28:03.196Z,21.55
2022-09-26T05:30:31.363Z,22.90
2022-09-26T05:32:59.322Z,25.67
2022-09-26T05:35:29.228Z,23.20
2022-09-26T05:38:00.848Z,22.35
2022-09-26T05:40:47.278Z,23.23
2022-09-26T05:43:14.776Z,31.55
2022-09-26T05:45:41.994Z,20.67
2022-09-26T05:48:11.159Z,24.65
2022-09-26T05:50:43.426Z,20.48
2022-09-26T05:53:13.851Z,24.33
2022-09-26T05:55:41.578Z,16.42
2022-09-26T05:58:24.622Z,17.50
2022-09-26T06:01:24.730Z,20.95
2022-09-26T06:04:07.100Z,14.57
2022-09-26T06:06:53.508Z,15.88
2022-09-26T06:09:34.769Z,11.13
2022-09-26T06:12:40.062Z,9.27
2022-09-26T06:15:09.972Z,8.52
2022-09-26T06:17:36.949Z,10.20
2022-09-26T06:20:05.388Z,7.43
2022-09-26T06:22:40.976Z,9.50
2022-09-26T06:25:11.254Z,12.05
2022-09-26T06:27:40.657Z,6.53
2022-09-26T06:30:09.588Z,7.47
2022-09-26T06:32:39.209Z,6.00
2022-09-26T06:35:22.345Z,6.13
2022-09-26T06:38:03.816Z,5.78
2022-09-26T06:40:33.147Z,11.60
2022-09-26T06:43:00.608Z,9.55
2022-09-26T06:45:46.122Z,5.57
2022-09-26T06:48:36.374Z,12.35
2022-09-26T06:51:16.837Z,6.15
2022-09-26T06:53:45.777Z,7.28
2022-09-26T06:56:16.119Z,9.43
2022-09-26T06:58:43.358Z,7.47
2022-09-26T07:01:11.321Z,15.18
2022-09-26T07:04:04.083Z,9.45
2022-09-26T07:06:46.132Z,9.60
2022-09-26T07:09:13.501Z,14.13
2022-09-26T07:12:16.698Z,9.07
2022-09-26T07:17:19.690Z,15.55
2022-09-26T07:20:13.859Z,12.70
2022-09-26T07:23:04.801Z,11.38
2022-09-26T07:25:32.227Z,11.00
2022-09-26T07:28:01.751Z,10.02
2022-09-26T07:30:49.039Z,10.20
2022-09-26T07:33:25.056Z,10.52
2022-09-26T07:35:53.266Z,10.57
2022-09-26T07:38:21.791Z,14.07
2022-09-26T07:40:54.357Z,13.60
2022-09-26T07:43:30.781Z,12.95
2022-09-26T07:46:27.720Z,11.57
2022-09-26T07:49:15.094Z,11.85
2022-09-26T07:52:00.788Z,12.48
2022-09-26T07:54:37.823Z,10.57
2022-09-26T07:57:19.623Z,14.23
2022-09-26T08:00:06.122Z,11.90
2022-09-26T08:02:49.160Z,15.25
2022-09-26T08:05:20.351Z,12.90
2022-09-26T08:07:49.373Z,12.68
2022-09-26T08:10:36.115Z,10.60
2022-09-26T08:13:21.945Z,11.70
2022-09-26T08:16:23.088Z,13.65
2022-09-26T08:18:53.955Z,12.80
2022-09-26T08:21:22.542Z,12.85
2022-09-26T08:23:53.587Z,11.40
2022-09-26T08:26:32.507Z,16.05
2022-09-26T08:29:09.671Z,13.32
2022-09-26T08:31:38.681Z,13.50
2022-09-26T08:34:06.691Z,19.05
2022-09-26T08:36:35.880Z,15.48
2022-09-26T08:39:14.312Z,15.82
2022-09-26T08:42:06.783Z,14.32
2022-09-26T08:45:02.612Z,15.13
2022-09-26T08:48:21.998Z,14.97
2022-09-26T08:51:17.434Z,14.63
2022-09-26T08:54:11.953Z,14.05
2022-09-26T08:57:01.507Z,12.40
2022-09-26T08:59:38.545Z,14.90
2022-09-26T09:02:15.674Z,13.02
2022-09-26T09:04:59.154Z,13.52
2022-09-26T09:07:26.831Z,11.73
2022-09-26T09:09:57.424Z,10.55
2022-09-26T09:13:10.301Z,16.80
2022-09-26T09:16:21.563Z,11.25
2022-09-26T09:19:26.346Z,10.07
2022-09-26T09:22:22.539Z,11.63
2022-09-26T09:25:37.718Z,9.23
2022-09-26T09:28:14.651Z,37.53
2022-09-26T09:30:50.738Z,9.20
2022-09-26T09:33:39.065Z,8.38
2022-09-26T09:36:39.986Z,9.25
2022-09-26T09:39:48.095Z,11.20
2022-09-26T09:42:21.767Z,8.68
2022-09-26T09:44:58.072Z,8.57
2022-09-26T09:47:27.118Z,9.90
2022-09-26T09:49:56.087Z,9.75
2022-09-26T09:55:44.381Z,10.05
2022-09-26T09:58:30.223Z,15.15
2022-09-26T10:01:09.863Z,8.70
2022-09-26T10:03:57.195Z,9.80
2022-09-26T10:06:45.364Z,10.50
2022-09-26T10:09:35.195Z,10.20
2022-09-26T10:12:28.944Z,10.63
2022-09-26T10:15:40.012Z,13.73
2022-09-26T10:18:26.533Z,11.73
2022-09-26T10:21:16.365Z,16.33
2022-09-26T10:23:47.310Z,11.40
2022-09-26T10:26:35.102Z,13.13
2022-09-26T10:29:23.409Z,10.38
2022-09-26T10:32:08.396Z,11.52
2022-09-26T10:35:36.211Z,11.43
2022-09-26T10:38:28.122Z,11.85
2022-09-26T10:41:27.260Z,12.23
2022-09-26T10:43:57.517Z,11.85
2022-09-26T10:46:45.411Z,10.45
2022-09-26T10:49:39.938Z,8.95
2022-09-26T10:52:18.602Z,9.75
2022-09-26T10:55:03.516Z,10.95
2022-09-26T10:57:53.364Z,10.55
2022-09-26T11:00:40.749Z,12.68
2022-09-26T11:03:47.867Z,11.57
2022-09-26T11:06:40.967Z,9.93
2022-09-26T11:09:23.870Z,11.48
2022-09-26T11:12:42.319Z,12.25
2022-09-26T11:15:44.779Z,12.25
2022-09-26T11:18:53.944Z,11.75
2022-09-26T11:21:44.299Z,11.88
2022-09-26T11:24:42.516Z,12.65
2022-09-26T11:28:12.744Z,12.02
2022-09-26T11:31:28.495Z,11.18
2022-09-26T11:34:27.831Z,10.60
2022-09-26T11:37:30.905Z,10.32
2022-09-26T11:40:46.354Z,9.23
2022-09-26T11:44:17.675Z,13.15
2022-09-26T11:47:30.426Z,14.65
2022-09-26T11:50:28.824Z,8.63
2022-09-26T11:54:01.172Z,12.60
2022-09-26T11:56:32.674Z,8.77
2022-09-26T11:59:14.203Z,9.82
2022-09-26T12:02:34.186Z,9.02
2022-09-26T12:06:10.902Z,11.25
2022-09-26T12:09:01.437Z,10.45
2022-09-26T12:12:09.922Z,10.32
2022-09-26T12:15:07.103Z,9.98
2022-09-26T12:21:05.730Z,11.35
2022-09-26T12:23:44.108Z,19.88
2022-09-26T12:26:26.827Z,11.15
2022-09-26T12:29:42.468Z,12.80
2022-09-26T12:36:34.253Z,13.10
2022-09-26T12:43:54.622Z,12.63
2022-09-26T12:47:31.814Z,13.32
2022-09-26T12:50:11.931Z,14.10
2022-09-26T13:00:33.293Z,10.60
2022-09-26T13:03:24.361Z,11.38
2022-09-26T13:06:08.988Z,12.27
2022-09-26T13:08:58.554Z,11.45
2022-09-26T13:11:32.797Z,12.07
2022-09-26T13:14:37.879Z,13.38
2022-09-26T13:17:24.727Z,13.90
2022-09-26T13:20:01.848Z,12.68
2022-09-26T13:22:44.669Z,12.88
2022-09-26T13:25:12.718Z,12.93
2022-09-26T13:27:44.311Z,12.00
2022-09-26T13:30:25.375Z,14.82
2022-09-26T13:33:01.547Z,11.18
2022-09-26T13:35:31.787Z,13.38
2022-09-26T13:38:29.659Z,13.07
2022-09-26T13:41:19.032Z,11.48
2022-09-26T13:43:53.840Z,12.55
2022-09-26T13:46:46.238Z,12.55
2022-09-26T13:49:34.261Z,16.65
2022-09-26T13:52:52.454Z,15.38
2022-09-26T13:55:21.812Z,10.95
2022-09-26T13:57:50.045Z,11.05
2022-09-26T14:00:29.327Z,11.25
2022-09-26T14:03:17.512Z,14.30
2022-09-26T14:05:44.672Z,13.88
2022-09-26T14:08:53.259Z,12.68
2022-09-26T14:11:25.097Z,13.50
2022-09-26T14:14:21.616Z,13.13
2022-09-26T14:17:01.797Z,12.38
2022-09-26T14:20:00.569Z,10.10
2022-09-26T14:22:37.691Z,12.02
2022-09-26T14:25:45.015Z,12.30
2022-09-26T14:28:32.791Z,10.45
2022-09-26T14:31:18.423Z,9.82
2022-09-26T14:33:46.045Z,9.70
2022-09-26T14:36:25.864Z,10.68
2022-09-26T14:38:54.241Z,14.25
2022-09-26T14:41:22.811Z,10.23
2022-09-26T14:43:51.712Z,11.52
2022-09-26T14:46:23.720Z,20.73
2022-09-26T14:49:03.560Z,11.15
2022-09-26T14:51:33.534Z,10.13
2022-09-26T14:54:05.194Z,11.90
2022-09-26T14:56:38.033Z,10.20
2022-09-26T14:59:26.792Z,12.32
2022-09-26T15:02:27.001Z,14.40
2022-09-26T15:05:19.345Z,15.13
2022-09-26T15:07:51.712Z,10.07
2022-09-26T15:10:45.438Z,12.30
2022-09-26T15:15:54.819Z,11.32
2022-09-26T15:18:28.302Z,13.95
2022-09-26T15:21:18.379Z,14.10
2022-09-26T15:23:56.693Z,15.98
2022-09-26T15:26:32.435Z,14.93
2022-09-26T15:29:00.418Z,12.93
2022-09-26T15:31:41.809Z,12.77
2022-09-26T15:34:13.007Z,14.90
2022-09-26T15:36:42.324Z,14.70
2022-09-26T15:39:32.864Z,19.30
2022-09-26T15:42:22.453Z,15.95
2022-09-26T15:45:03.046Z,19.70
2022-09-26T15:47:32.056Z,13.02
2022-09-26T15:50:51.104Z,12.77
2022-09-26T15:53:28.490Z,12.43
2022-09-26T15:56:06.632Z,12.48
2022-09-26T15:58:39.326Z,11.23
2022-09-26T16:01:09.772Z,10.45
2022-09-26T16:03:55.175Z,14.15
2022-09-26T16:06:27.667Z,10.05
2022-09-26T16:09:07.234Z,8.93
2022-09-26T16:11:46.882Z,9.57
2022-09-26T16:14:40.832Z,10.23
2022-09-26T16:17:29.850Z,12.65
2022-09-26T16:20:01.973Z,9.70
2022-09-26T16:22:40.423Z,9.80
2022-09-26T16:25:19.979Z,10.13
2022-09-26T16:27:50.651Z,9.20
2022-09-26T16:30:28.217Z,11.80
2022-09-26T16:33:08.239Z,18.35
2022-09-26T16:35:37.581Z,12.07
2022-09-26T16:38:31.724Z,16.55
2022-09-26T16:41:10.466Z,10.93
2022-09-26T16:43:39.056Z,15.68
2022-09-26T16:46:11.786Z,24.00
2022-09-26T16:48:42.124Z,11.20
2022-09-26T16:51:22.611Z,17.10
2022-09-26T16:54:10.723Z,13.60
2022-09-26T16:56:41.464Z,14.25
2022-09-26T16:59:18.161Z,17.17
2022-09-26T17:01:54.585Z,13.68
2022-09-26T17:04:34.403Z,19.92
2022-09-26T17:07:13.104Z,14.07
2022-09-26T17:09:42.728Z,16.58
2022-09-26T17:12:23.497Z,16.60
2022-09-26T17:14:52.472Z,12.73
2022-09-26T17:17:25.967Z,11.98
2022-09-26T17:22:36.543Z,10.70
2022-09-26T17:25:05.489Z,15.38
2022-09-26T17:27:38.606Z,13.32
2022-09-26T17:30:16.498Z,13.27
2022-09-26T17:35:39.942Z,11.38
2022-09-26T17:38:14.434Z,10.45
2022-09-26T17:40:45.653Z,15.57
2022-09-26T17:43:14.853Z,11.88
2022-09-26T17:45:53.371Z,12.38
2022-09-26T17:48:34.359Z,17.58
2022-09-26T17:51:05.202Z,14.73
2022-09-26T17:53:46.164Z,14.63
2022-09-26T17:56:20.654Z,17.35
2022-09-26T17:58:51.433Z,16.17
2022-09-26T18:01:38.830Z,16.35
2022-09-26T18:04:09.152Z,18.13
2022-09-26T18:06:36.972Z,16.00
2022-09-26T18:09:10.361Z,16.80
2022-09-26T18:11:43.239Z,21.02
2022-09-26T18:14:17.245Z,18.30
2022-09-26T18:16:48.250Z,18.95
2022-09-26T18:19:21.134Z,23.50
2022-09-26T18:25:47.833Z,17.85
2022-09-26T18:28:27.495Z,19.15
2022-09-26T18:31:14.086Z,20.55
2022-09-26T18:34:24.260Z,26.48
2022-09-26T18:37:22.565Z,16.83
2022-09-26T18:40:59.866Z,19.05
2022-09-26T18:44:13.917Z,20.25
2022-09-26T18:48:41.742Z,21.15
2022-09-26T18:56:34.303Z,23.60
2022-09-26T18:58:50.904Z,19.33
2022-09-26T19:01:34.416Z,21.42
2022-09-26T19:04:23.869Z,21.17
2022-09-26T19:07:06.104Z,22.08
2022-09-26T19:09:41.805Z,23.45
2022-09-26T19:12:18.955Z,26.17
2022-09-26T19:14:57.896Z,26.50
2022-09-26T19:17:52.628Z,23.83
2022-09-26T19:21:01.391Z,26.90
2022-09-26T19:36:35.869Z,24.00
2022-09-26T19:40:09.847Z,27.67
2022-09-26T19:43:19.903Z,24.58
2022-09-26T19:46:06.558Z,25.63
2022-09-26T19:49:14.933Z,25.00
2022-09-26T19:51:52.365Z,26.15
2022-09-26T19:54:24.528Z,26.98
2022-09-26T19:57:07.632Z,34.85
2022-09-26T20:00:23.982Z,28.70
2022-09-26T20:03:55.825Z,28.02
2022-09-26T20:10:49.901Z,37.75
2022-09-26T20:18:33.799Z,25.77
2022-09-26T20:22:17.891Z,26.52
2022-09-26T20:25:42.899Z,24.13
2022-09-26T20:28:33.757Z,28.65
2022-09-26T20:31:48.946Z,27.42
2022-09-26T20:34:40.956Z,24.88
2022-09-26T20:37:43.340Z,30.63
2022-09-26T20:46:56.672Z,27.52
2022-09-26T20:53:52.570Z,29.02
2022-09-26T20:57:18.195Z,32.55
2022-09-26T21:01:12.029Z,30.35
2022-09-26T21:03:46.890Z,29.27
2022-09-26T21:09:36.837Z,27.33
2022-09-26T21:12:16.724Z,30.77
2022-09-26T21:14:49.606Z,28.90
2022-09-26T21:17:44.775Z,28.83
2022-09-26T21:20:23.989Z,26.80
2022-09-26T21:30:50.865Z,33.67
2022-09-26T21:33:37.462Z,29.02
2022-09-26T21:36:13.383Z,29.83
2022-09-26T21:41:59.848Z,26.27
2022-09-26T21:45:00.756Z,28.42
2022-09-26T21:47:54.807Z,29.63
2022-09-26T21:50:44.569Z,28.90
2022-09-26T21:54:20.486Z,26.30
2022-09-26T22:01:16.884Z,27.58
2022-09-26T22:04:06.357Z,25.48
2022-09-26T22:06:47.027Z,25.40
2022-09-26T22:10:16.317Z,23.92
2022-09-26T22:13:40.901Z,22.20
2022-09-26T22:16:35.129Z,19.60
2022-09-26T22:19:06.258Z,20.40
2022-09-26T22:21:34.294Z,17.65
2022-09-26T22:27:31.010Z,13.38
2022-09-26T22:30:03.266Z,13.07
2022-09-26T22:32:39.087Z,11.25
2022-09-26T22:35:39.202Z,13.00
2022-09-26T22:38:14.853Z,13.30
2022-09-26T22:41:26.882Z,13.95
2022-09-26T22:44:17.026Z,16.20
2022-09-26T22:49:42.474Z,24.65
2022-09-26T22:52:25.017Z,26.98
2022-09-26T22:58:19.254Z,31.17
2022-09-26T23:01:35.970Z,36.03
2022-09-26T23:04:13.169Z,43.08
2022-09-26T23:07:00.150Z,42.28
2022-09-26T23:09:51.946Z,41.92
2022-09-26T23:12:29.176Z,42.78
2022-09-26T23:14:56.190Z,43.08
2022-09-26T23:17:25.275Z,54.22
2022-09-26T23:19:59.792Z,54.15
2022-09-26T23:22:33.465Z,44.35
2022-09-26T23:25:15.430Z,43.85
2022-09-26T23:27:46.266Z,47.00
2022-09-26T23:33:12.104Z,44.30
2022-09-26T23:35:42.672Z,48.05
2022-09-26T23:38:10.399Z,44.38
2022-09-26T23:41:15.307Z,43.90
2022-09-26T23:43:49.075Z,41.42
2022-09-26T23:46:20.120Z,42.58
2022-09-26T23:48:54.232Z,43.92
2022-09-26T23:51:34.546Z,44.25
2022-09-26T23:54:45.935Z,38.60
2022-09-26T23:57:46.565Z,39.05
